Time;durP1;ratioP1;P1;durP2;ratioP2;P2;SDS_P1;SDS_P2;PMS_P1;PMS_P2;Temp;Humidity;BMP_temperature;BMP_pressure;BME280_temperature;BME280_humidity;BME280_pressure;Samples;Min_cycle;Max_cycle;Signal;HPM_P1;HPM_P2
2022/09/11 00:00:39;;;;;;;20.52;9.32;;;;;;;14.61;100.00;100218.75;6150840;22;20007;-80
2022/09/11 00:03:04;;;;;;;;;;;;;;;14.58;100.00;100213.19;6253757;22;20001;-80
2022/09/11 00:05:30;;;;;;;20.87;9.63;;;;;;;14.54;100.00;100215.84;6253438;22;19905;-80
2022/09/11 00:07:56;;;;;;;;;;;;;;;14.59;100.00;100215.56;6151696;22;20330;-81
2022/09/11 00:10:23;;;;;;;18.38;8.40;;;;;;;14.62;100.00;100216.81;6150999;23;20229;-80
2022/09/11 00:12:49;;;;;;;19.60;9.40;;;;;;;14.59;100.00;100210.06;6150947;22;20005;-79
2022/09/11 00:15:14;;;;;;;;;;;;;;;14.58;100.00;100213.19;6253805;22;19998;-80
2022/09/11 00:17:39;;;;;;;18.60;8.32;;;;;;;14.57;100.00;100217.06;6150589;23;19988;-80
2022/09/11 00:20:04;;;;;;;;;;;;;;;14.58;100.00;100216.72;6253659;22;20453;-80
2022/09/11 00:22:31;;;;;;;18.77;9.23;;;;;;;14.54;100.00;100221.31;6150609;23;19911;-79
2022/09/11 00:24:58;;;;;;;15.88;7.57;;;;;;;14.83;100.00;100224.69;6150196;23;20006;-79
2022/09/11 00:27:25;;;;;;;16.85;7.97;;;;;;;14.64;100.00;100223.50;6151055;22;20005;-79
2022/09/11 00:29:50;;;;;;;20.23;9.23;;;;;;;14.59;100.00;100229.25;6150425;22;20006;-79
2022/09/11 00:32:15;;;;;;;;;;;;;;;14.58;100.00;100232.34;6150881;22;20461;-80
2022/09/11 00:34:41;;;;;;;16.77;8.43;;;;;;;14.54;100.00;100237.75;6252855;22;20381;-79
2022/09/11 00:37:06;;;;;;;;;;;;;;;14.57;100.00;100233.50;6150719;22;20005;-79
2022/09/11 00:39:31;;;;;;;17.02;7.00;;;;;;;14.54;100.00;100239.72;6253051;22;19912;-79
2022/09/11 00:41:57;;;;;;;;;;;;;;;14.53;100.00;100230.69;6150971;22;20006;-80
2022/09/11 00:44:22;;;;;;;15.20;7.72;;;;;;;14.52;100.00;100237.34;6150508;23;19911;-79
2022/09/11 00:46:49;;;;;;;;;;;;;;;14.50;100.00;100234.16;6253341;22;20014;-79
2022/09/11 00:49:22;;;;;;;14.48;7.45;;;;;;;14.50;100.00;100239.63;6150475;23;19915;-79
2022/09/11 00:51:53;;;;;;;16.73;8.18;;;;;;;14.46;100.00;100240.72;6253185;22;20093;-79
2022/09/11 00:54:25;;;;;;;22.48;11.20;;;;;;;14.38;100.00;100237.78;6252935;22;20010;-79
2022/09/11 00:56:52;;;;;;;20.05;8.77;;;;;;;14.37;100.00;100247.16;6248750;22;20388;-79
2022/09/11 00:59:24;;;;;;;18.98;9.18;;;;;;;14.29;100.00;100245.41;6151367;22;20009;-80
2022/09/11 01:01:50;;;;;;;20.58;8.85;;;;;;;14.29;100.00;100253.63;6255105;22;20005;-80
2022/09/11 01:04:16;;;;;;;24.10;8.60;;;;;;;14.21;100.00;100248.31;6254927;22;20021;-79
2022/09/11 01:06:42;;;;;;;;;;;;;;;14.20;100.00;100253.00;6255164;22;20002;-82
2022/09/11 01:09:08;;;;;;;20.27;10.05;;;;;;;14.13;100.00;100253.66;6254699;22;19980;-80
2022/09/11 01:11:36;;;;;;;;;;;;;;;14.13;100.00;100256.38;6152028;23;20005;-81
2022/09/11 01:14:16;;;;;;;21.08;8.52;;;;;;;14.09;100.00;100257.44;6254790;22;19908;-81
2022/09/11 01:16:52;;;;;;;22.35;9.13;;;;;;;14.11;100.00;100260.63;6151931;22;20327;-81
2022/09/11 01:19:56;;;;;;;20.13;9.73;;;;;;;14.11;100.00;100266.09;6254705;22;20338;-80
2022/09/11 01:22:34;;;;;;;21.63;9.52;;;;;;;14.07;100.00;100257.78;6254389;22;20036;-79
2022/09/11 01:25:23;;;;;;;22.92;9.85;;;;;;;14.04;100.00;100258.50;6151431;22;20377;-79
2022/09/11 01:27:57;;;;;;;22.23;10.30;;;;;;;14.12;100.00;100265.75;6151882;22;20006;-79
2022/09/11 01:30:37;;;;;;;23.52;10.80;;;;;;;14.05;100.00;100264.75;6254638;22;20029;-79
2022/09/11 01:33:21;;;;;;;21.38;9.70;;;;;;;14.06;100.00;100266.34;6244240;22;20021;-80
2022/09/11 01:36:06;;;;;;;23.33;10.43;;;;;;;14.04;100.00;100271.38;6151789;22;20081;-80
2022/09/11 01:38:31;;;;;;;23.42;10.23;;;;;;;14.05;100.00;100276.50;6254652;22;20002;-79
2022/09/11 01:41:08;;;;;;;;;;;;;;;14.07;100.00;100276.94;6254803;22;20005;-80
2022/09/11 01:43:46;;;;;;;21.73;9.93;;;;;;;14.21;100.00;100281.19;6151634;23;19905;-80
2022/09/11 01:46:18;;;;;;;25.55;10.38;;;;;;;14.20;100.00;100287.81;6151414;22;20010;-80
2022/09/11 01:48:47;;;;;;;20.55;10.13;;;;;;;14.46;100.00;100282.59;6253443;22;20001;-80
2022/09/11 01:51:24;;;;;;;24.80;9.55;;;;;;;14.55;100.00;100285.94;6151332;22;20010;-80
2022/09/11 01:53:52;;;;;;;24.30;9.90;;;;;;;14.53;100.00;100284.69;6151586;22;20016;-80
2022/09/11 01:56:25;;;;;;;24.35;10.48;;;;;;;14.51;100.00;100282.31;6151371;22;20097;-80
2022/09/11 01:58:58;;;;;;;24.10;11.45;;;;;;;14.52;100.00;100291.34;6163438;22;20005;-79
2022/09/11 02:01:30;;;;;;;28.08;10.88;;;;;;;14.49;100.00;100298.31;6254460;22;20026;-79
2022/09/11 02:04:09;;;;;;;24.30;10.60;;;;;;;14.50;100.00;100302.66;6151427;22;20422;-79
2022/09/11 02:06:41;;;;;;;26.70;11.32;;;;;;;14.49;100.00;100297.53;6151329;22;20005;-79
2022/09/11 02:09:11;;;;;;;21.45;10.13;;;;;;;14.39;100.00;100299.63;6151223;22;20439;-80
2022/09/11 02:11:41;;;;;;;21.65;9.60;;;;;;;14.29;100.00;100299.41;6253899;22;20047;-79
2022/09/11 02:14:20;;;;;;;21.40;9.73;;;;;;;14.31;100.00;100292.41;6151538;22;20024;-78
2022/09/11 02:16:56;;;;;;;21.63;10.00;;;;;;;14.48;100.00;100294.00;6151700;22;20005;-79
2022/09/11 02:19:27;;;;;;;24.55;10.10;;;;;;;14.44;100.00;100296.66;6253968;22;20010;-80
2022/09/11 02:21:53;;;;;;;23.13;9.90;;;;;;;14.38;100.00;100292.56;6151111;22;20033;-80
2022/09/11 02:24:19;;;;;;;;;;;;;;;14.31;100.00;100294.34;6152037;22;20006;-79
2022/09/11 02:26:52;;;;;;;23.00;11.25;;;;;;;14.25;100.00;100298.50;6151283;23;19962;-79
2022/09/11 02:29:19;;;;;;;26.20;12.00;;;;;;;14.27;100.00;100301.66;6151358;22;20001;-79
2022/09/11 02:31:45;;;;;;;27.70;11.38;;;;;;;14.21;100.00;100292.13;6152074;22;20021;-79
2022/09/11 02:34:12;;;;;;;;;;;;;;;14.14;100.00;100299.03;6151779;22;20054;-80
2022/09/11 02:37:03;;;;;;;25.02;11.52;;;;;;;14.10;100.00;100297.34;6151399;23;19905;-79
2022/09/11 02:39:52;;;;;;;25.23;10.85;;;;;;;14.06;100.00;100289.06;6254027;22;20006;-79
2022/09/11 02:42:36;;;;;;;24.65;10.15;;;;;;;14.38;100.00;100291.75;6253037;22;20006;-78
2022/09/11 02:45:14;;;;;;;23.58;10.63;;;;;;;14.34;100.00;100297.16;6151347;23;20023;-79
2022/09/11 02:47:48;;;;;;;24.88;11.75;;;;;;;14.35;100.00;100298.75;6151132;23;20434;-79
2022/09/11 02:50:29;;;;;;;27.17;12.68;;;;;;;14.17;100.00;100294.00;6151497;22;20005;-79
2022/09/11 02:53:11;;;;;;;25.05;10.27;;;;;;;14.24;100.00;100303.16;6254195;22;20037;-79
2022/09/11 02:56:04;;;;;;;27.17;11.27;;;;;;;14.21;100.00;100297.63;6151735;22;20028;-78
2022/09/11 02:58:40;;;;;;;25.08;11.15;;;;;;;14.36;100.00;100299.56;6151184;22;20486;-79
2022/09/11 03:01:07;;;;;;;25.85;11.23;;;;;;;14.46;100.00;100303.72;6151841;22;20001;-79
2022/09/11 03:03:48;;;;;;;23.40;10.27;;;;;;;14.53;100.00;100303.88;6151951;22;20058;-79
2022/09/11 03:06:17;;;;;;;25.35;10.70;;;;;;;14.42;100.00;100306.34;6151510;22;20005;-79
2022/09/11 03:08:43;;;;;;;34.10;13.15;;;;;;;14.29;100.00;100313.09;6151327;22;20143;-79
2022/09/11 03:11:08;;;;;;;;;;;;;;;14.29;100.00;100308.41;6254086;22;20247;-79
2022/09/11 03:13:35;;;;;;;35.28;13.90;;;;;;;14.27;100.00;100307.94;6151166;23;19912;-79
2022/09/11 03:16:01;;;;;;;37.10;13.13;;;;;;;14.51;100.00;100317.16;6150881;22;20055;-79
2022/09/11 03:18:26;;;;;;;;;;;;;;;14.42;100.00;100311.81;6151384;23;20080;-79
2022/09/11 03:20:51;;;;;;;28.53;11.10;;;;;;;14.68;100.00;100312.06;6150924;23;20373;-79
2022/09/11 03:23:17;;;;;;;;;;;;;;;14.49;100.00;100324.94;6151318;23;20685;-79
2022/09/11 03:25:42;;;;;;;39.70;14.68;;;;;;;14.28;100.00;100322.44;6253245;22;19944;-79
2022/09/11 03:28:07;;;;;;;;;;;;;;;14.15;100.00;100327.22;6253765;22;20342;-80
2022/09/11 03:30:34;;;;;;;44.72;15.40;;;;;;;14.12;100.00;100323.25;6150704;23;19945;-79
2022/09/11 03:33:03;;;;;;;38.45;14.38;;;;;;;14.17;100.00;100319.44;6151238;22;20071;-79
2022/09/11 03:35:28;;;;;;;42.47;14.52;;;;;;;14.42;100.00;100325.50;6151103;23;20016;-79
2022/09/11 03:37:56;;;;;;;;;;;;;;;14.51;100.00;100339.06;6151551;22;20009;-80
2022/09/11 03:40:22;;;;;;;40.53;14.45;;;;;;;14.39;100.00;100337.97;6253956;22;20412;-79
2022/09/11 03:42:50;;;;;;;;;;;;;;;14.32;100.00;100339.75;6151620;22;20029;-81
2022/09/11 03:45:15;;;;;;;38.40;13.88;;;;;;;14.30;100.00;100336.59;6150839;23;19908;-80
2022/09/11 03:47:41;;;;;;;;;;;;;;;14.55;100.00;100339.94;6152063;22;20067;-81
2022/09/11 03:50:08;;;;;;;39.03;14.47;;;;;;;14.37;100.00;100339.50;6150978;22;20215;-80
2022/09/11 03:52:35;;;;;;;44.08;15.18;;;;;;;14.43;100.00;100340.78;6151831;22;20013;-82
2022/09/11 03:55:03;;;;;;;39.22;14.40;;;;;;;14.58;100.00;100342.75;6150749;22;20005;-82
2022/09/11 03:57:32;;;;;;;43.22;15.70;;;;;;;14.64;100.00;100338.63;6253229;22;20470;-81
2022/09/11 03:59:58;;;;;;;39.22;15.95;;;;;;;14.52;100.00;100357.88;6253924;22;19997;-82
2022/09/11 04:02:23;;;;;;;;;;;;;;;14.48;100.00;100348.78;6151309;23;20012;-82
2022/09/11 04:04:50;;;;;;;37.00;14.60;;;;;;;14.55;100.00;100348.94;6253114;22;19961;-81
2022/09/11 04:07:15;;;;;;;42.90;15.05;;;;;;;14.42;100.00;100347.44;6151089;22;20001;-81
2022/09/11 04:09:40;;;;;;;;;;;;;;;14.40;100.00;100355.22;6253109;22;20013;-82
2022/09/11 04:12:10;;;;;;;39.03;14.30;;;;;;;14.40;100.00;100355.22;6150887;23;19904;-83
2022/09/11 04:14:35;;;;;;;46.30;15.80;;;;;;;14.27;100.00;100354.50;6253430;22;20014;-83
2022/09/11 04:17:00;;;;;;;;;;;;;;;14.20;100.00;100357.06;6253685;22;20014;-83
2022/09/11 04:19:26;;;;;;;40.27;14.00;;;;;;;14.07;100.00;100371.97;6253559;22;19908;-83
2022/09/11 04:21:51;;;;;;;;;;;;;;;13.96;100.00;100369.00;6253863;22;20229;-84
2022/09/11 04:24:17;;;;;;;53.20;15.00;;;;;;;13.90;100.00;100362.16;6253743;22;20260;-82
2022/09/11 04:26:43;;;;;;;41.47;14.38;;;;;;;13.84;100.00;100366.31;6150443;23;20089;-82
2022/09/11 04:29:08;;;;;;;;;;;;;;;13.82;100.00;100369.41;6151624;22;20039;-82
2022/09/11 04:31:40;;;;;;;39.75;12.88;;;;;;;13.81;100.00;100373.28;6150559;23;19905;-83
2022/09/11 04:34:08;;;;;;;44.47;14.20;;;;;;;13.80;100.00;100368.94;6150090;23;20009;-82
2022/09/11 04:36:36;;;;;;;47.30;15.38;;;;;;;14.02;100.00;100364.84;6150588;22;20427;-83
2022/09/11 04:39:02;;;;;;;57.92;17.85;;;;;;;14.33;100.00;100363.25;6151217;23;20043;-82
2022/09/11 04:41:28;;;;;;;55.85;15.65;;;;;;;14.20;100.00;100372.72;6227420;22;20018;-83
2022/09/11 04:43:55;;;;;;;;;;;;;;;14.21;100.00;100368.81;6253475;22;20380;-84
2022/09/11 04:46:22;;;;;;;48.22;16.33;;;;;;;14.09;100.00;100366.94;6150450;23;20314;-82
2022/09/11 04:48:51;;;;;;;46.67;15.82;;;;;;;13.94;100.00;100371.28;6253252;22;20001;-84
2022/09/11 04:51:30;;;;;;;48.13;15.25;;;;;;;13.88;100.00;100372.66;6150777;22;19998;-83
2022/09/11 04:53:57;;;;;;;54.72;15.70;;;;;;;13.84;100.00;100382.72;6248464;22;20013;-83
2022/09/11 04:56:25;;;;;;;45.88;15.38;;;;;;;13.88;100.00;100371.88;6252907;22;20013;-84
2022/09/11 04:58:59;;;;;;;41.72;14.73;;;;;;;13.92;100.00;100372.75;6150449;22;20006;-84
2022/09/11 05:01:29;;;;;;;45.65;15.70;;;;;;;13.82;100.00;100379.56;6163522;22;20002;-83
2022/09/11 05:03:55;;;;;;;39.63;14.20;;;;;;;13.81;100.00;100372.47;6150737;22;20028;-83
2022/09/11 05:06:21;;;;;;;50.17;16.95;;;;;;;14.04;100.00;100375.44;6150477;23;20018;-84
2022/09/11 05:08:50;;;;;;;56.08;14.75;;;;;;;13.94;100.00;100384.16;6253171;22;20004;-84
2022/09/11 05:11:27;;;;;;;;;;;;;;;;;;;;;
2022/09/11 05:13:53;;;;;;;39.67;13.27;;;;;;;13.92;100.00;100386.44;6150394;22;20077;-85
2022/09/11 05:16:18;;;;;;;;;;;;;;;14.09;100.00;100386.91;6253067;22;20037;-85
2022/09/11 05:18:52;;;;;;;49.70;13.77;;;;;;;14.20;100.00;100391.88;6150625;22;20346;-83
2022/09/11 05:21:23;;;;;;;42.25;13.68;;;;;;;14.17;100.00;100398.84;6253299;22;20726;-83
2022/09/11 05:23:51;;;;;;;43.75;14.30;;;;;;;14.14;100.00;100402.31;6150151;23;20001;-83
2022/09/11 05:26:19;;;;;;;46.15;14.68;;;;;;;14.04;100.00;100398.13;6150000;22;20037;-85
2022/09/11 05:28:46;;;;;;;47.63;14.55;;;;;;;14.17;100.00;100395.31;6151209;22;20079;-84
2022/09/11 05:31:15;;;;;;;47.30;13.30;;;;;;;14.23;100.00;100402.91;6253493;22;20010;-85
2022/09/11 05:33:41;;;;;;;41.42;13.48;;;;;;;14.34;100.00;100401.25;6253930;22;20434;-85
2022/09/11 05:36:09;;;;;;;42.70;13.77;;;;;;;14.35;100.00;100402.84;6150363;23;20040;-87
2022/09/11 05:38:35;;;;;;;46.70;14.10;;;;;;;14.36;100.00;100412.66;6253515;22;20009;-84
2022/09/11 05:41:04;;;;;;;47.63;14.77;;;;;;;14.29;100.00;100411.69;6150794;22;20318;-84
2022/09/11 05:43:30;;;;;;;41.20;13.93;;;;;;;14.26;100.00;100423.31;6252955;22;20017;-83
2022/09/11 05:45:58;;;;;;;35.55;12.65;;;;;;;14.31;100.00;100428.56;6150607;23;20009;-82
2022/09/11 05:48:27;;;;;;;44.08;13.80;;;;;;;14.17;100.00;100423.50;6254626;22;20080;-82
2022/09/11 05:50:58;;;;;;;39.60;14.90;;;;;;;14.24;100.00;100429.16;6254511;22;20345;-81
2022/09/11 05:53:24;;;;;;;40.88;13.40;;;;;;;14.39;100.00;100435.81;6254526;22;20002;-83
2022/09/11 05:55:53;;;;;;;38.67;13.40;;;;;;;14.28;100.00;100429.28;6153421;22;20418;-83
2022/09/11 05:58:19;;;;;;;43.30;15.82;;;;;;;14.27;100.00;100439.41;6151618;22;20127;-84
2022/09/11 06:00:45;;;;;;;;;;;;;;;14.48;100.00;100432.94;6152402;22;20033;-85
2022/09/11 06:03:16;;;;;;;47.45;15.02;;;;;;;14.50;100.00;100442.38;6151246;23;19957;-83
2022/09/11 06:05:42;;;;;;;42.38;13.00;;;;;;;14.32;100.00;100441.09;6254649;22;20485;-81
2022/09/11 06:08:08;;;;;;;;;;;;;;;14.29;100.00;100444.56;6152441;22;20143;-83
2022/09/11 06:10:47;;;;;;;38.40;13.40;;;;;;;14.49;100.00;100440.00;6152656;22;19994;-81
2022/09/11 06:13:16;;;;;;;40.17;13.90;;;;;;;14.44;100.00;100444.59;6151934;23;20100;-79
2022/09/11 06:15:45;;;;;;;40.05;12.68;;;;;;;14.43;100.00;100442.97;6151980;22;20382;-80
2022/09/11 06:18:11;;;;;;;33.55;12.55;;;;;;;14.65;100.00;100452.56;6151471;22;20063;-80
2022/09/11 06:20:40;;;;;;;;;;;;;;;14.65;100.00;100454.50;6255135;22;19998;-80
2022/09/11 06:23:07;;;;;;;42.92;12.95;;;;;;;14.58;100.00;100463.31;6151487;23;20353;-80
2022/09/11 06:25:33;;;;;;;34.83;13.13;;;;;;;14.57;100.00;100464.47;6151127;22;20085;-81
2022/09/11 06:27:58;;;;;;;;;;;;;;;14.61;100.00;100462.66;6152044;23;20503;-82
2022/09/11 06:30:23;;;;;;;39.93;11.77;;;;;;;14.67;100.00;100453.00;6253582;22;20245;-81
2022/09/11 06:32:49;;;;;;;;;;;;;;;14.68;100.00;100464.75;6254380;22;20009;-82
2022/09/11 06:35:14;;;;;;;31.70;11.80;;;;;;;14.69;100.00;100461.66;6151133;23;19912;-81
2022/09/11 06:37:41;;;;;;;;;;;;;;;14.71;100.00;100466.78;6151779;22;20012;-82
2022/09/11 06:40:07;;;;;;;33.55;11.18;;;;;;;14.69;100.00;100472.63;6254288;22;19904;-82
2022/09/11 06:42:32;;;;;;;;;;;;;;;14.59;100.00;100470.41;6152119;22;20002;-83
2022/09/11 06:44:58;;;;;;;40.88;12.63;;;;;;;14.90;100.00;100466.88;6152046;23;19904;-81
2022/09/11 06:47:24;;;;;;;;;;;;;;;14.55;100.00;100468.72;6151625;22;20438;-82
2022/09/11 06:49:50;;;;;;;35.30;12.55;;;;;;;14.69;100.00;100469.88;6150907;22;19995;-81
2022/09/11 06:52:16;;;;;;;;;;;;;;;14.68;100.00;100465.56;6152660;22;20143;-81
2022/09/11 06:54:43;;;;;;;31.52;11.18;;;;;;;14.70;100.00;100470.69;6253994;22;19927;-81
2022/09/11 06:57:08;;;;;;;28.35;10.75;;;;;;;14.79;100.00;100471.31;6150958;23;20005;-82
2022/09/11 06:59:34;;;;;;;;;;;;;;;14.79;100.00;100470.50;6152327;23;20048;-81
2022/09/11 07:02:00;;;;;;;36.53;12.80;;;;;;;14.74;100.00;100469.59;6153005;23;19905;-81
2022/09/11 07:04:27;;;;;;;33.38;12.55;;;;;;;14.68;100.00;100465.56;6152694;22;20054;-80
2022/09/11 07:06:54;;;;;;;41.53;15.15;;;;;;;14.75;100.00;100473.94;6151583;23;20308;-81
2022/09/11 07:09:20;;;;;;;39.60;15.15;;;;;;;14.85;100.00;100469.88;6151180;22;20021;-81
2022/09/11 07:11:45;;;;;;;37.75;13.68;;;;;;;14.97;100.00;100469.78;6151370;23;20006;-81
2022/09/11 07:14:11;;;;;;;;;;;;;;;14.82;100.00;100475.28;6151792;22;20006;-82
2022/09/11 07:16:36;;;;;;;40.08;13.85;;;;;;;14.93;100.00;100474.38;6253922;22;19978;-82
2022/09/11 07:19:04;;;;;;;;;;;;;;;14.86;100.00;100476.97;6152020;22;20005;-82
2022/09/11 07:21:30;;;;;;;36.70;13.57;;;;;;;14.90;100.00;100471.56;6253881;22;19909;-82
2022/09/11 07:23:57;;;;;;;;;;;;;;;14.86;100.00;100482.44;6152987;22;20088;-83
2022/09/11 07:26:25;;;;;;;47.42;15.25;;;;;;;14.72;100.00;100482.06;6253680;22;19917;-82
2022/09/11 07:28:54;;;;;;;41.45;15.02;;;;;;;14.72;100.00;100482.88;6228293;23;20036;-81
2022/09/11 07:31:25;;;;;;;39.75;14.00;;;;;;;14.90;100.00;100496.22;6153367;22;20414;-81
2022/09/11 07:33:52;;;;;;;39.08;13.35;;;;;;;14.78;100.00;100497.13;6253905;22;20006;-82
2022/09/11 07:36:21;;;;;;;41.22;14.07;;;;;;;14.80;100.00;100494.03;6151373;22;20063;-82
2022/09/11 07:38:48;;;;;;;38.10;13.07;;;;;;;14.90;100.00;100498.97;6151146;22;20012;-83
2022/09/11 07:41:15;;;;;;;48.95;15.82;;;;;;;14.72;100.00;100490.31;6255098;22;20013;-82
2022/09/11 07:43:44;;;;;;;40.47;14.05;;;;;;;14.77;100.00;100494.72;6151307;22;20009;-83
2022/09/11 07:46:10;;;;;;;40.53;14.70;;;;;;;14.82;100.00;100498.00;6151743;22;20010;-82
2022/09/11 07:48:37;;;;;;;45.08;16.65;;;;;;;15.16;100.00;100496.47;6253371;22;20005;-81
2022/09/11 07:51:06;;;;;;;49.35;16.55;;;;;;;15.15;100.00;100494.88;6150750;22;20059;-81
2022/09/11 07:53:41;;;;;;;48.97;16.17;;;;;;;14.91;100.00;100503.28;6151195;22;20008;-81
2022/09/11 07:56:35;;;;;;;40.00;16.58;;;;;;;15.11;100.00;100504.16;6151106;22;20024;-82
2022/09/11 07:59:01;;;;;;;39.60;14.52;;;;;;;14.98;100.00;100506.22;6152345;22;20009;-82
2022/09/11 08:01:32;;;;;;;44.28;15.80;;;;;;;15.22;100.00;100500.53;6151033;22;20009;-81
2022/09/11 08:04:03;;;;;;;46.75;16.50;;;;;;;15.37;100.00;100503.59;6151371;22;20005;-80
2022/09/11 08:06:32;;;;;;;52.83;17.70;;;;;;;15.34;100.00;100503.16;6253422;22;20444;-80
2022/09/11 08:09:03;;;;;;;48.00;15.98;;;;;;;15.11;100.00;100515.94;6150592;22;20012;-81
2022/09/11 08:11:33;;;;;;;44.28;15.98;;;;;;;15.05;100.00;100520.91;6253199;22;20006;-80
2022/09/11 08:13:58;;;;;;;42.40;16.92;;;;;;;14.95;100.00;100524.19;6151047;22;20123;-81
2022/09/11 08:16:25;;;;;;;;;;;;;;;14.89;100.00;100530.28;6228044;22;20079;-82
2022/09/11 08:18:51;;;;;;;47.08;16.25;;;;;;;14.99;100.00;100530.56;6150544;23;20381;-82
2022/09/11 08:21:17;;;;;;;;;;;;;;;15.04;100.00;100529.47;6151053;22;19994;-83
2022/09/11 08:23:43;;;;;;;49.45;17.00;;;;;;;15.00;100.00;100536.84;6229348;22;19909;-83
2022/09/11 08:26:14;;;;;;;47.53;16.52;;;;;;;14.95;100.00;100532.41;6252745;22;20073;-82
2022/09/11 08:28:44;;;;;;;47.85;16.48;;;;;;;14.88;100.00;100532.22;6150910;22;20010;-82
2022/09/11 08:31:11;;;;;;;44.95;15.82;;;;;;;15.03;100.00;100533.38;6250166;22;20045;-82
2022/09/11 08:33:37;;;;;;;49.42;18.25;;;;;;;14.94;100.00;100541.75;6150589;22;20072;-82
2022/09/11 08:36:04;;;;;;;;;;;;;;;14.95;100.00;100548.06;6253102;22;20010;-83
2022/09/11 08:38:30;;;;;;;48.78;17.15;;;;;;;14.95;100.00;100548.88;6252761;22;19908;-82
2022/09/11 08:40:58;;;;;;;;;;;;;;;15.14;100.00;100553.66;6253345;22;19998;-83
2022/09/11 08:43:31;;;;;;;46.78;15.13;;;;;;;15.20;100.00;100551.41;6253175;22;20387;-82
2022/09/11 08:46:08;;;;;;;49.03;17.40;;;;;;;15.09;100.00;100558.56;6150656;22;19997;-83
2022/09/11 08:48:37;;;;;;;45.00;17.25;;;;;;;15.03;100.00;100558.06;6253000;22;20508;-84
2022/09/11 08:51:03;;;;;;;45.65;16.88;;;;;;;14.97;100.00;100567.72;6150727;22;20001;-84
2022/09/11 08:53:31;;;;;;;;;;;;;;;14.92;100.00;100568.75;6151034;23;20005;-84
2022/09/11 08:56:06;;;;;;;44.53;15.45;;;;;;;14.90;100.00;100564.78;6150557;22;19908;-83
2022/09/11 08:58:44;;;;;;;51.00;17.58;;;;;;;14.87;100.00;100566.28;6228527;22;20041;-84
2022/09/11 09:01:47;;;;;;;46.10;17.00;;;;;;;14.97;100.00;100571.25;6150365;23;20364;-84
2022/09/11 09:04:42;;;;;;;;;;;;;;;;;;;;;
2022/09/11 09:07:55;;;;;;;43.95;16.00;;;;;;;15.09;100.00;100581.31;6150271;23;20076;-82
2022/09/11 09:10:50;;;;;;;58.78;18.33;;;;;;;15.09;100.00;100575.03;6253112;22;20059;-84
2022/09/11 09:13:22;;;;;;;50.33;16.83;;;;;;;15.00;100.00;100576.03;6150896;22;20425;-84
2022/09/11 09:16:25;;;;;;;49.38;17.27;;;;;;;15.04;100.00;100590.63;6149845;23;20005;-83
2022/09/11 09:19:03;;;;;;;57.05;19.83;;;;;;;15.13;100.00;100587.72;6150616;23;20073;-83
2022/09/11 09:21:36;;;;;;;52.60;18.90;;;;;;;15.04;100.00;100587.88;6151892;22;20287;-83
2022/09/11 09:24:18;;;;;;;56.10;16.98;;;;;;;14.98;100.00;100583.00;6151778;22;20080;-83
2022/09/11 09:26:48;;;;;;;52.65;18.13;;;;;;;14.78;100.00;100593.06;6253794;22;20021;-83
2022/09/11 09:29:19;;;;;;;44.53;17.00;;;;;;;14.80;100.00;100592.72;6251227;22;20290;-83
2022/09/11 09:31:49;;;;;;;46.83;16.23;;;;;;;14.82;100.00;100590.41;6151540;23;19998;-85
2022/09/11 09:34:20;;;;;;;42.90;14.82;;;;;;;14.82;100.00;100590.41;6151652;22;20005;-83
2022/09/11 09:36:56;;;;;;;46.40;15.05;;;;;;;14.84;100.00;100594.41;6151274;23;20109;-83
2022/09/11 09:39:23;;;;;;;44.75;16.20;;;;;;;14.93;100.00;100586.00;6151540;23;20009;-85
2022/09/11 09:42:10;;;;;;;38.58;14.30;;;;;;;15.24;100.00;100594.25;6151524;22;20001;-84
2022/09/11 09:45:00;;;;;;;36.45;13.90;;;;;;;15.22;100.00;100598.50;6151395;23;20024;-84
2022/09/11 09:47:25;;;;;;;47.38;15.43;;;;;;;15.27;100.00;100588.03;6153183;22;20013;-84
2022/09/11 09:49:52;;;;;;;;;;;;;;;15.21;100.00;100597.69;6151939;22;20086;-85
2022/09/11 09:52:19;;;;;;;32.08;12.25;;;;;;;15.10;100.00;100593.88;6254208;22;19954;-84
2022/09/11 09:54:55;;;;;;;36.35;13.95;;;;;;;15.14;100.00;100597.53;6151972;22;20449;-85
2022/09/11 09:57:24;;;;;;;33.53;12.88;;;;;;;15.50;100.00;100598.41;6151675;22;20002;-84
2022/09/11 10:02:47;;;;;;;34.17;13.95;;;;;;;15.32;100.00;100598.75;6083866;22;20470;-82
2022/09/11 10:05:17;;;;;;;38.28;14.75;;;;;;;15.31;100.00;100594.44;6184652;22;20052;-83
2022/09/11 10:07:58;;;;;;;40.20;14.27;;;;;;;15.42;100.00;100602.91;6275177;22;20016;-84
2022/09/11 10:10:25;;;;;;;35.53;14.30;;;;;;;15.43;100.00;100598.22;6276424;22;20035;-84
2022/09/11 10:12:52;;;;;;;33.08;14.13;;;;;;;15.50;100.00;100595.66;6275004;22;20000;-84
2022/09/11 10:15:21;;;;;;;34.42;14.30;;;;;;;15.29;100.00;100598.69;6276964;22;20003;-87
2022/09/11 10:17:50;;;;;;;37.30;15.20;;;;;;;15.28;100.00;100600.63;6276572;22;20082;-83
2022/09/11 10:20:17;;;;;;;42.17;14.90;;;;;;;15.36;100.00;100596.09;6277215;22;20129;-84
2022/09/11 10:22:43;;;;;;;;;;;;;;;15.59;100.00;100599.81;6275546;22;20013;-85
2022/09/11 10:25:14;;;;;;;35.13;14.15;;;;;;;15.63;100.00;100599.91;6276269;22;19907;-84
2022/09/11 10:27:58;;;;;;;34.30;13.27;;;;;;;15.76;100.00;100598.63;6274908;22;20057;-86
2022/09/11 10:30:27;;;;;;;33.10;13.50;;;;;;;15.87;100.00;100596.94;6274660;22;20000;-85
2022/09/11 10:32:55;;;;;;;33.50;14.55;;;;;;;15.78;100.00;100590.03;6276469;22;20444;-84
2022/09/11 10:35:24;;;;;;;30.27;13.80;;;;;;;15.82;100.00;100594.47;6275112;22;20014;-85
2022/09/11 10:38:00;;;;;;;32.45;12.65;;;;;;;15.83;100.00;100604.31;6274715;22;20004;-85
2022/09/11 10:40:25;;;;;;;36.35;14.63;;;;;;;16.28;98.95;100594.66;6276697;22;20003;-84
2022/09/11 10:42:55;;;;;;;;;;;;;;;16.17;98.77;100599.16;6228199;22;20026;-85
2022/09/11 10:45:24;;;;;;;31.10;12.88;;;;;;;16.24;99.18;100594.56;6090330;23;19989;-84
2022/09/11 10:47:49;;;;;;;31.08;11.48;;;;;;;16.84;97.30;100596.97;6092542;23;20029;-84
2022/09/11 10:50:24;;;;;;;31.92;11.98;;;;;;;16.77;94.97;100594.84;6090918;23;20008;-85
2022/09/11 10:53:11;;;;;;;35.08;14.27;;;;;;;16.82;94.08;100596.53;6091452;23;20007;-84
2022/09/11 10:58:12;;;;;;;32.35;13.48;;;;;;;16.98;93.13;100602.72;6276065;22;20019;-80
2022/09/11 11:00:38;;;;;;;34.55;14.27;;;;;;;16.79;94.39;100600.78;6274640;22;20010;-81
2022/09/11 11:03:18;;;;;;;31.60;14.95;;;;;;;16.73;93.85;100598.69;6275767;22;20039;-81
2022/09/11 11:05:43;;;;;;;35.20;14.73;;;;;;;17.30;90.60;100599.69;6277080;22;20004;-81
2022/09/11 11:08:27;;;;;;;32.60;14.07;;;;;;;17.01;91.69;100604.72;6277895;22;20013;-80
2022/09/11 11:11:39;;;;;;;37.67;15.07;;;;;;;16.94;92.54;100599.09;6275337;22;20011;-81
2022/09/11 11:14:39;;;;;;;37.95;14.98;;;;;;;16.75;91.63;100596.38;6181079;22;20011;-80
2022/09/11 11:17:14;;;;;;;35.30;13.95;;;;;;;16.80;91.29;100602.41;6258137;22;20090;-82
2022/09/11 11:19:59;;;;;;;31.75;12.98;;;;;;;16.89;91.10;100602.16;6279033;22;20003;-81
2022/09/11 11:22:33;;;;;;;30.15;12.88;;;;;;;17.07;91.70;100602.47;6307077;22;20338;-80
2022/09/11 11:25:18;;;;;;;33.03;14.00;;;;;;;17.00;89.34;100603.16;6279643;22;20003;-81
2022/09/11 11:28:14;;;;;;;36.58;14.93;;;;;;;17.07;88.88;100605.22;6306980;22;20003;-81
2022/09/11 11:31:02;;;;;;;31.77;13.73;;;;;;;17.22;88.79;100601.53;6279038;22;20013;-81
2022/09/11 11:33:54;;;;;;;32.10;13.70;;;;;;;17.63;86.83;100599.81;6306978;22;20363;-81
2022/09/11 11:36:42;;;;;;;31.33;13.25;;;;;;;18.07;85.17;100590.25;6279449;22;20046;-81
2022/09/11 11:39:30;;;;;;;33.03;13.48;;;;;;;18.20;83.94;100592.41;6306735;22;20078;-81
2022/09/11 11:41:58;;;;;;;32.95;13.70;;;;;;;18.10;83.56;100593.03;6279455;22;20070;-82